sensor_id;sensor_type;location;lat;lon;timestamp;pressure;altitude;pressure_sealevel;temperature;humidity
72055;BME280;59936;51.490;5.436;2023-03-22T00:00:03;100851.34;;;9.32;78.36
72055;BME280;59936;51.490;5.436;2023-03-22T00:02:29;100849.53;;;9.32;76.33
72055;BME280;59936;51.490;5.436;2023-03-22T00:04:55;100848.22;;;9.36;75.95
72055;BME280;59936;51.490;5.436;2023-03-22T00:07:21;100838.16;;;9.30;75.49
72055;BME280;59936;51.490;5.436;2023-03-22T00:09:47;100841.28;;;9.26;76.13
72055;BME280;59936;51.490;5.436;2023-03-22T00:12:13;100837.94;;;9.24;75.44
72055;BME280;59936;51.490;5.436;2023-03-22T00:14:39;100836.16;;;9.32;76.61
72055;BME280;59936;51.490;5.436;2023-03-22T00:17:04;100839.22;;;9.37;76.38
72055;BME280;59936;51.490;5.436;2023-03-22T00:19:30;100836.91;;;9.43;79.58
72055;BME280;59936;51.490;5.436;2023-03-22T00:21:56;100821.19;;;9.39;76.70
72055;BME280;59936;51.490;5.436;2023-03-22T00:24:22;100818.97;;;9.35;79.23
72055;BME280;59936;51.490;5.436;2023-03-22T00:26:47;100818.81;;;9.36;76.36
72055;BME280;59936;51.490;5.436;2023-03-22T00:29:13;100821.81;;;9.33;79.56
72055;BME280;59936;51.490;5.436;2023-03-22T00:31:39;100815.63;;;9.33;77.14
72055;BME280;59936;51.490;5.436;2023-03-22T00:34:04;100808.44;;;9.33;80.88
72055;BME280;59936;51.490;5.436;2023-03-22T00:36:30;100806.31;;;9.37;77.04
72055;BME280;59936;51.490;5.436;2023-03-22T00:38:56;100799.44;;;9.34;79.41
72055;BME280;59936;51.490;5.436;2023-03-22T00:41:22;100797.75;;;9.33;76.69
72055;BME280;59936;51.490;5.436;2023-03-22T00:43:49;100794.88;;;9.27;80.13
72055;BME280;59936;51.490;5.436;2023-03-22T00:46:17;100792.69;;;9.22;77.62
72055;BME280;59936;51.490;5.436;2023-03-22T00:48:44;100783.00;;;9.21;77.55
72055;BME280;59936;51.490;5.436;2023-03-22T00:51:10;100785.81;;;9.20;76.87
72055;BME280;59936;51.490;5.436;2023-03-22T00:53:37;100783.69;;;9.23;78.42
72055;BME280;59936;51.490;5.436;2023-03-22T00:56:04;100778.69;;;9.28;76.99
72055;BME280;59936;51.490;5.436;2023-03-22T00:58:30;100777.81;;;9.46;78.33
72055;BME280;59936;51.490;5.436;2023-03-22T01:00:56;100777.81;;;9.46;78.33
72055;BME280;59936;51.490;5.436;2023-03-22T01:03:22;100773.47;;;9.45;81.75
72055;BME280;59936;51.490;5.436;2023-03-22T01:05:48;100755.53;;;9.37;77.72
72055;BME280;59936;51.490;5.436;2023-03-22T01:08:14;100765.38;;;9.36;78.17
72055;BME280;59936;51.490;5.436;2023-03-22T01:10:40;100764.00;;;9.32;76.94
72055;BME280;59936;51.490;5.436;2023-03-22T01:13:06;100759.03;;;9.37;82.02
72055;BME280;59936;51.490;5.436;2023-03-22T01:15:33;100754.91;;;9.43;78.04
72055;BME280;59936;51.490;5.436;2023-03-22T01:17:59;100756.63;;;9.52;76.77
72055;BME280;59936;51.490;5.436;2023-03-22T01:20:25;100754.41;;;9.48;80.45
72055;BME280;59936;51.490;5.436;2023-03-22T01:22:51;100746.09;;;9.51;78.08
72055;BME280;59936;51.490;5.436;2023-03-22T01:25:17;100738.44;;;9.56;78.59
72055;BME280;59936;51.490;5.436;2023-03-22T01:27:42;100741.94;;;9.56;82.30
72055;BME280;59936;51.490;5.436;2023-03-22T01:30:09;100735.13;;;9.62;79.45
72055;BME280;59936;51.490;5.436;2023-03-22T01:32:35;100717.28;;;9.70;82.90
72055;BME280;59936;51.490;5.436;2023-03-22T01:35:02;100712.59;;;9.72;78.57
72055;BME280;59936;51.490;5.436;2023-03-22T01:37:28;100699.06;;;9.74;78.28
72055;BME280;59936;51.490;5.436;2023-03-22T01:39:54;100693.09;;;9.80;79.04
72055;BME280;59936;51.490;5.436;2023-03-22T01:42:20;100695.28;;;9.85;78.36
72055;BME280;59936;51.490;5.436;2023-03-22T01:47:39;100683.63;;;10.02;77.74
72055;BME280;59936;51.490;5.436;2023-03-22T01:50:07;100676.97;;;10.06;78.42
72055;BME280;59936;51.490;5.436;2023-03-22T01:52:34;100674.78;;;10.10;77.46
72055;BME280;59936;51.490;5.436;2023-03-22T01:55:00;100671.44;;;10.16;77.54
72055;BME280;59936;51.490;5.436;2023-03-22T01:57:26;100662.09;;;10.20;79.00
72055;BME280;59936;51.490;5.436;2023-03-22T01:59:52;100663.09;;;10.27;78.91
72055;BME280;59936;51.490;5.436;2023-03-22T02:02:18;100665.28;;;10.23;78.04
72055;BME280;59936;51.490;5.436;2023-03-22T02:04:45;100661.91;;;10.21;81.70
72055;BME280;59936;51.490;5.436;2023-03-22T02:07:14;100650.06;;;10.24;78.66
72055;BME280;59936;51.490;5.436;2023-03-22T02:09:40;100648.38;;;10.23;77.43
72055;BME280;59936;51.490;5.436;2023-03-22T02:14:45;100649.03;;;10.33;82.15
72055;BME280;59936;51.490;5.436;2023-03-22T02:17:25;100643.22;;;10.29;79.11
72055;BME280;59936;51.490;5.436;2023-03-22T02:20:08;100641.38;;;10.30;79.86
72055;BME280;59936;51.490;5.436;2023-03-22T02:28:17;100642.22;;;10.30;79.03
72055;BME280;59936;51.490;5.436;2023-03-22T02:31:08;100640.38;;;10.31;78.55
72055;BME280;59936;51.490;5.436;2023-03-22T02:33:58;100637.19;;;10.27;79.55
72055;BME280;59936;51.490;5.436;2023-03-22T02:39:43;100626.16;;;10.30;81.64
72055;BME280;59936;51.490;5.436;2023-03-22T02:45:02;100629.16;;;10.27;78.68
72055;BME280;59936;51.490;5.436;2023-03-22T02:53:19;100622.81;;;10.28;79.60
72055;BME280;59936;51.490;5.436;2023-03-22T02:58:18;100624.63;;;10.36;77.92
72055;BME280;59936;51.490;5.436;2023-03-22T03:00:48;100619.28;;;10.28;80.15
72055;BME280;59936;51.490;5.436;2023-03-22T03:03:17;100609.25;;;10.30;79.42
72055;BME280;59936;51.490;5.436;2023-03-22T03:05:46;100606.41;;;10.31;78.01
72055;BME280;59936;51.490;5.436;2023-03-22T03:08:16;100600.41;;;10.29;79.04
72055;BME280;59936;51.490;5.436;2023-03-22T03:10:43;100602.06;;;10.30;79.42
72055;BME280;59936;51.490;5.436;2023-03-22T03:13:11;100610.94;;;10.31;78.40
72055;BME280;59936;51.490;5.436;2023-03-22T03:15:39;100599.88;;;10.34;78.69
72055;BME280;59936;51.490;5.436;2023-03-22T03:18:12;100600.22;;;10.39;78.27
72055;BME280;59936;51.490;5.436;2023-03-22T03:20:51;100596.34;;;10.33;78.66
72055;BME280;59936;51.490;5.436;2023-03-22T03:28:51;100594.03;;;10.22;79.59
72055;BME280;59936;51.490;5.436;2023-03-22T03:31:37;100590.53;;;10.30;77.56
72055;BME280;59936;51.490;5.436;2023-03-22T03:34:27;100591.84;;;10.34;77.91
72055;BME280;59936;51.490;5.436;2023-03-22T03:36:59;100584.81;;;10.33;79.67
72055;BME280;59936;51.490;5.436;2023-03-22T03:39:29;100592.19;;;10.31;78.64
72055;BME280;59936;51.490;5.436;2023-03-22T03:41:57;100584.84;;;10.25;78.17
72055;BME280;59936;51.490;5.436;2023-03-22T03:44:25;100584.66;;;10.18;77.92
72055;BME280;59936;51.490;5.436;2023-03-22T03:46:52;100590.84;;;10.27;77.52
72055;BME280;59936;51.490;5.436;2023-03-22T03:49:21;100587.19;;;10.28;77.57
72055;BME280;59936;51.490;5.436;2023-03-22T03:51:50;100584.84;;;10.25;78.90
72055;BME280;59936;51.490;5.436;2023-03-22T03:54:16;100589.34;;;10.24;77.63
72055;BME280;59936;51.490;5.436;2023-03-22T03:56:42;100596.19;;;10.19;77.91
72055;BME280;59936;51.490;5.436;2023-03-22T03:59:08;100592.50;;;10.12;77.90
72055;BME280;59936;51.490;5.436;2023-03-22T04:01:34;100587.84;;;10.05;79.68
72055;BME280;59936;51.490;5.436;2023-03-22T04:04:00;100594.34;;;10.03;78.44
72055;BME280;59936;51.490;5.436;2023-03-22T04:06:25;100597.03;;;10.03;78.38
72055;BME280;59936;51.490;5.436;2023-03-22T04:08:51;100596.84;;;9.96;78.76
72055;BME280;59936;51.490;5.436;2023-03-22T04:11:17;100597.34;;;10.00;77.98
72055;BME280;59936;51.490;5.436;2023-03-22T04:13:43;100593.84;;;9.99;80.35
72055;BME280;59936;51.490;5.436;2023-03-22T04:16:08;100591.16;;;9.91;78.46
72055;BME280;59936;51.490;5.436;2023-03-22T04:18:34;100595.84;;;9.97;79.76
72055;BME280;59936;51.490;5.436;2023-03-22T04:21:00;100586.63;;;9.92;78.38
72055;BME280;59936;51.490;5.436;2023-03-22T04:23:26;100584.97;;;9.83;78.63
72055;BME280;59936;51.490;5.436;2023-03-22T04:25:51;100581.44;;;9.82;78.76
72055;BME280;59936;51.490;5.436;2023-03-22T04:28:17;100587.13;;;9.79;81.13
72055;BME280;59936;51.490;5.436;2023-03-22T04:30:43;100581.09;;;9.77;78.86
72055;BME280;59936;51.490;5.436;2023-03-22T04:33:09;100579.78;;;9.81;80.68
72055;BME280;59936;51.490;5.436;2023-03-22T04:35:34;100568.75;;;9.84;78.07
72055;BME280;59936;51.490;5.436;2023-03-22T04:38:00;100570.56;;;9.76;81.02
72055;BME280;59936;51.490;5.436;2023-03-22T04:40:26;100577.25;;;9.71;78.26
72055;BME280;59936;51.490;5.436;2023-03-22T04:42:52;100568.38;;;9.71;80.55
72055;BME280;59936;51.490;5.436;2023-03-22T04:45:18;100569.41;;;9.78;77.86
72055;BME280;59936;51.490;5.436;2023-03-22T04:47:43;100568.72;;;9.76;79.28
72055;BME280;59936;51.490;5.436;2023-03-22T04:50:09;100566.38;;;9.73;77.84
72055;BME280;59936;51.490;5.436;2023-03-22T04:52:35;100563.72;;;9.65;79.88
72055;BME280;59936;51.490;5.436;2023-03-22T04:55:01;100565.91;;;9.78;78.51
72055;BME280;59936;51.490;5.436;2023-03-22T04:57:26;100570.44;;;9.85;79.95
72055;BME280;59936;51.490;5.436;2023-03-22T04:59:52;100568.44;;;9.87;78.06
72055;BME280;59936;51.490;5.436;2023-03-22T05:02:18;100567.06;;;9.91;77.92
72055;BME280;59936;51.490;5.436;2023-03-22T05:04:44;100570.75;;;9.90;77.80
72055;BME280;59936;51.490;5.436;2023-03-22T05:07:10;100567.75;;;9.93;78.11
72055;BME280;59936;51.490;5.436;2023-03-22T05:09:36;100564.56;;;9.90;79.78
72055;BME280;59936;51.490;5.436;2023-03-22T05:12:01;100557.38;;;9.90;78.29
72055;BME280;59936;51.490;5.436;2023-03-22T05:14:27;100565.59;;;9.89;79.97
72055;BME280;59936;51.490;5.436;2023-03-22T05:16:53;100565.41;;;9.82;77.95
72055;BME280;59936;51.490;5.436;2023-03-22T05:19:19;100555.53;;;9.74;78.76
72055;BME280;59936;51.490;5.436;2023-03-22T05:21:44;100562.06;;;9.80;78.61
72055;BME280;59936;51.490;5.436;2023-03-22T05:24:10;100552.38;;;9.79;79.14
72055;BME280;59936;51.490;5.436;2023-03-22T05:26:36;100549.03;;;9.85;78.37
72055;BME280;59936;51.490;5.436;2023-03-22T05:29:03;100545.38;;;9.86;79.34
72055;BME280;59936;51.490;5.436;2023-03-22T05:31:29;100551.19;;;9.90;77.36
72055;BME280;59936;51.490;5.436;2023-03-22T05:33:55;100554.53;;;9.92;77.68
72055;BME280;59936;51.490;5.436;2023-03-22T05:36:21;100554.91;;;9.89;78.89
72055;BME280;59936;51.490;5.436;2023-03-22T05:38:47;100551.19;;;9.90;77.37
72055;BME280;59936;51.490;5.436;2023-03-22T05:41:13;100558.06;;;9.92;77.37
72055;BME280;59936;51.490;5.436;2023-03-22T05:43:39;100549.34;;;9.90;78.23
72055;BME280;59936;51.490;5.436;2023-03-22T05:46:08;100555.22;;;9.94;77.32
72055;BME280;59936;51.490;5.436;2023-03-22T05:48:35;100549.19;;;9.92;78.28
72055;BME280;59936;51.490;5.436;2023-03-22T05:51:01;100548.88;;;9.95;77.37
72055;BME280;59936;51.490;5.436;2023-03-22T05:53:28;100545.03;;;9.97;77.22
72055;BME280;59936;51.490;5.436;2023-03-22T05:55:54;100543.69;;;10.01;76.83
72055;BME280;59936;51.490;5.436;2023-03-22T05:58:19;100562.75;;;10.06;76.86
72055;BME280;59936;51.490;5.436;2023-03-22T06:00:45;100556.56;;;10.06;77.28
72055;BME280;59936;51.490;5.436;2023-03-22T06:03:11;100554.03;;;10.13;76.51
72055;BME280;59936;51.490;5.436;2023-03-22T06:05:37;100557.72;;;10.12;77.52
72055;BME280;59936;51.490;5.436;2023-03-22T06:08:03;100563.75;;;10.14;76.60
72055;BME280;59936;51.490;5.436;2023-03-22T06:10:29;100554.22;;;10.11;77.38
72055;BME280;59936;51.490;5.436;2023-03-22T06:12:55;100547.22;;;10.10;76.68
72055;BME280;59936;51.490;5.436;2023-03-22T06:15:20;100557.06;;;10.18;76.50
72055;BME280;59936;51.490;5.436;2023-03-22T06:17:47;100554.88;;;10.21;76.99
72055;BME280;59936;51.490;5.436;2023-03-22T06:20:13;100552.22;;;10.29;75.75
72055;BME280;59936;51.490;5.436;2023-03-22T06:22:39;100547.00;;;10.36;75.64
72055;BME280;59936;51.490;5.436;2023-03-22T06:25:06;100548.19;;;10.33;76.46
72055;BME280;59936;51.490;5.436;2023-03-22T06:27:33;100547.00;;;10.44;75.42
72055;BME280;59936;51.490;5.436;2023-03-22T06:29:59;100548.19;;;10.50;75.41
72055;BME280;59936;51.490;5.436;2023-03-22T06:32:25;100548.97;;;10.58;75.33
72055;BME280;59936;51.490;5.436;2023-03-22T06:34:52;100553.66;;;10.64;75.22
72055;BME280;59936;51.490;5.436;2023-03-22T06:37:19;100559.69;;;10.66;75.27
72055;BME280;59936;51.490;5.436;2023-03-22T06:39:45;100555.00;;;10.68;75.36
72055;BME280;59936;51.490;5.436;2023-03-22T06:42:10;100548.31;;;10.72;75.24
72055;BME280;59936;51.490;5.436;2023-03-22T06:44:36;100551.31;;;10.69;75.52
72055;BME280;59936;51.490;5.436;2023-03-22T06:47:03;100559.84;;;10.73;75.38
72055;BME280;59936;51.490;5.436;2023-03-22T06:49:29;100550.66;;;10.75;75.38
72055;BME280;59936;51.490;5.436;2023-03-22T06:51:55;100554.78;;;10.78;75.43
72055;BME280;59936;51.490;5.436;2023-03-22T06:54:20;100562.16;;;10.76;75.54
72055;BME280;59936;51.490;5.436;2023-03-22T06:56:46;100549.94;;;10.82;75.44
72055;BME280;59936;51.490;5.436;2023-03-22T06:59:12;100557.47;;;10.86;75.37
72055;BME280;59936;51.490;5.436;2023-03-22T07:01:38;100546.69;;;11.10;74.69
72055;BME280;59936;51.490;5.436;2023-03-22T07:04:04;100547.13;;;11.22;74.39
72055;BME280;59936;51.490;5.436;2023-03-22T07:06:29;100548.69;;;11.48;74.04
72055;BME280;59936;51.490;5.436;2023-03-22T07:08:55;100539.91;;;11.62;72.91
72055;BME280;59936;51.490;5.436;2023-03-22T07:11:21;100548.59;;;11.64;73.32
72055;BME280;59936;51.490;5.436;2023-03-22T07:13:47;100546.91;;;11.40;72.73
72055;BME280;59936;51.490;5.436;2023-03-22T07:16:12;100550.09;;;11.35;74.26
72055;BME280;59936;51.490;5.436;2023-03-22T07:18:38;100543.94;;;11.27;74.04
72055;BME280;59936;51.490;5.436;2023-03-22T07:21:04;100551.97;;;11.27;74.24
72055;BME280;59936;51.490;5.436;2023-03-22T07:23:30;100539.94;;;11.23;73.62
72055;BME280;59936;51.490;5.436;2023-03-22T07:25:55;100547.94;;;11.31;73.92
72055;BME280;59936;51.490;5.436;2023-03-22T07:28:21;100553.72;;;11.42;72.88
72055;BME280;59936;51.490;5.436;2023-03-22T07:30:47;100554.78;;;11.64;73.19
72055;BME280;59936;51.490;5.436;2023-03-22T07:33:13;100554.16;;;11.62;72.08
72055;BME280;59936;51.490;5.436;2023-03-22T07:35:38;100563.44;;;11.74;72.93
72055;BME280;59936;51.490;5.436;2023-03-22T07:38:05;100552.53;;;11.76;71.20
72055;BME280;59936;51.490;5.436;2023-03-22T07:40:31;100560.91;;;11.81;72.79
72055;BME280;59936;51.490;5.436;2023-03-22T07:42:57;100558.03;;;11.83;72.60
72055;BME280;59936;51.490;5.436;2023-03-22T07:45:23;100559.72;;;11.84;72.18
72055;BME280;59936;51.490;5.436;2023-03-22T07:47:49;100548.03;;;11.99;72.18
72055;BME280;59936;51.490;5.436;2023-03-22T07:50:15;100562.38;;;12.06;71.91
72055;BME280;59936;51.490;5.436;2023-03-22T07:52:42;100560.59;;;11.99;69.24
72055;BME280;59936;51.490;5.436;2023-03-22T07:55:10;100556.34;;;12.27;71.64
72055;BME280;59936;51.490;5.436;2023-03-22T07:57:37;100555.00;;;12.46;70.24
72055;BME280;59936;51.490;5.436;2023-03-22T08:00:05;100557.78;;;12.53;70.56
72055;BME280;59936;51.490;5.436;2023-03-22T08:02:31;100554.91;;;12.54;70.00
72055;BME280;59936;51.490;5.436;2023-03-22T08:04:57;100545.47;;;12.43;69.53
72055;BME280;59936;51.490;5.436;2023-03-22T08:07:23;100557.75;;;12.38;67.45
72055;BME280;59936;51.490;5.436;2023-03-22T08:09:49;100563.41;;;12.43;70.43
72055;BME280;59936;51.490;5.436;2023-03-22T08:12:15;100559.25;;;12.40;67.21
72055;BME280;59936;51.490;5.436;2023-03-22T08:14:41;100562.28;;;12.37;69.98
72055;BME280;59936;51.490;5.436;2023-03-22T08:17:07;100552.09;;;12.33;70.15
72055;BME280;59936;51.490;5.436;2023-03-22T08:19:33;100560.06;;;12.26;66.52
72055;BME280;59936;51.490;5.436;2023-03-22T08:21:59;100567.72;;;12.29;68.00
72055;BME280;59936;51.490;5.436;2023-03-22T08:24:25;100563.41;;;12.80;68.32
72055;BME280;59936;51.490;5.436;2023-03-22T08:26:51;100563.41;;;12.80;68.32
72055;BME280;59936;51.490;5.436;2023-03-22T08:29:18;100561.97;;;13.43;65.47
72055;BME280;59936;51.490;5.436;2023-03-22T08:31:44;100560.25;;;13.72;66.72
72055;BME280;59936;51.490;5.436;2023-03-22T08:34:09;100560.25;;;13.72;66.72
72055;BME280;59936;51.490;5.436;2023-03-22T08:36:36;100558.88;;;13.97;64.43
72055;BME280;59936;51.490;5.436;2023-03-22T08:39:03;100558.34;;;14.30;66.13
72055;BME280;59936;51.490;5.436;2023-03-22T08:41:29;100545.00;;;14.43;65.42
72055;BME280;59936;51.490;5.436;2023-03-22T08:43:55;100545.44;;;14.25;65.72
72055;BME280;59936;51.490;5.436;2023-03-22T08:46:20;100539.84;;;13.99;65.62
72055;BME280;59936;51.490;5.436;2023-03-22T08:48:46;100540.69;;;13.63;62.41
72055;BME280;59936;51.490;5.436;2023-03-22T08:51:12;100546.00;;;13.57;66.37
72055;BME280;59936;51.490;5.436;2023-03-22T08:53:38;100539.97;;;13.55;66.54
72055;BME280;59936;51.490;5.436;2023-03-22T08:56:04;100541.13;;;13.67;66.74
72055;BME280;59936;51.490;5.436;2023-03-22T08:58:30;100547.94;;;13.84;63.33
72055;BME280;59936;51.490;5.436;2023-03-22T09:00:56;100547.94;;;13.84;63.33
72055;BME280;59936;51.490;5.436;2023-03-22T09:03:22;100544.09;;;13.72;64.88
72055;BME280;59936;51.490;5.436;2023-03-22T09:05:47;100533.97;;;13.74;65.68
72055;BME280;59936;51.490;5.436;2023-03-22T09:08:13;100531.22;;;13.89;65.97
72055;BME280;59936;51.490;5.436;2023-03-22T09:10:39;100542.03;;;13.74;64.58
72055;BME280;59936;51.490;5.436;2023-03-22T09:13:05;100540.69;;;13.84;65.44
72055;BME280;59936;51.490;5.436;2023-03-22T09:15:31;100532.69;;;13.91;64.52
72055;BME280;59936;51.490;5.436;2023-03-22T09:17:57;100534.09;;;13.87;64.42
72055;BME280;59936;51.490;5.436;2023-03-22T09:20:22;100539.56;;;13.94;60.96
72055;BME280;59936;51.490;5.436;2023-03-22T09:22:48;100520.81;;;14.28;63.49
72055;BME280;59936;51.490;5.436;2023-03-22T09:25:14;100527.31;;;14.62;63.24
72055;BME280;59936;51.490;5.436;2023-03-22T09:27:40;100513.59;;;14.57;63.01
72055;BME280;59936;51.490;5.436;2023-03-22T09:30:06;100517.75;;;14.59;63.43
72055;BME280;59936;51.490;5.436;2023-03-22T09:32:32;100525.38;;;14.28;62.44
72055;BME280;59936;51.490;5.436;2023-03-22T09:34:58;100527.41;;;13.98;63.67
72055;BME280;59936;51.490;5.436;2023-03-22T09:37:24;100521.88;;;14.06;64.16
72055;BME280;59936;51.490;5.436;2023-03-22T09:39:50;100513.59;;;13.86;60.11
72055;BME280;59936;51.490;5.436;2023-03-22T09:45:02;100518.97;;;13.86;61.16
72055;BME280;59936;51.490;5.436;2023-03-22T09:47:35;100521.84;;;13.63;61.33
72055;BME280;59936;51.490;5.436;2023-03-22T09:50:12;100525.25;;;13.50;61.13
72055;BME280;59936;51.490;5.436;2023-03-22T09:52:39;100525.25;;;13.50;61.13
72055;BME280;59936;51.490;5.436;2023-03-22T09:57:46;100524.50;;;13.42;64.14
72055;BME280;59936;51.490;5.436;2023-03-22T10:00:23;100524.22;;;13.37;64.00
72055;BME280;59936;51.490;5.436;2023-03-22T10:03:00;100519.97;;;13.42;62.34
72055;BME280;59936;51.490;5.436;2023-03-22T10:10:40;100521.22;;;13.25;61.93
72055;BME280;59936;51.490;5.436;2023-03-22T10:15:34;100511.00;;;13.21;64.13
72055;BME280;59936;51.490;5.436;2023-03-22T10:18:05;100513.88;;;13.19;63.52
72055;BME280;59936;51.490;5.436;2023-03-22T10:20:37;100525.19;;;13.14;64.01
72055;BME280;59936;51.490;5.436;2023-03-22T10:23:10;100518.28;;;13.05;63.44
72055;BME280;59936;51.490;5.436;2023-03-22T10:25:39;100516.41;;;13.06;63.81
72055;BME280;59936;51.490;5.436;2023-03-22T10:28:40;100517.06;;;13.08;64.28
72055;BME280;59936;51.490;5.436;2023-03-22T10:31:15;100542.84;;;12.88;64.61
72055;BME280;59936;51.490;5.436;2023-03-22T10:33:51;100542.84;;;12.88;64.61
72055;BME280;59936;51.490;5.436;2023-03-22T10:36:22;100540.78;;;12.75;65.39
72055;BME280;59936;51.490;5.436;2023-03-22T10:38:53;100547.53;;;12.56;66.36
72055;BME280;59936;51.490;5.436;2023-03-22T10:41:23;100549.22;;;12.34;68.03
72055;BME280;59936;51.490;5.436;2023-03-22T10:43:59;100540.13;;;12.21;68.04
72055;BME280;59936;51.490;5.436;2023-03-22T10:46:30;100541.38;;;12.10;71.71
72055;BME280;59936;51.490;5.436;2023-03-22T10:48:59;100542.28;;;12.02;69.23
72055;BME280;59936;51.490;5.436;2023-03-22T10:51:39;100546.69;;;11.95;69.57
72055;BME280;59936;51.490;5.436;2023-03-22T10:54:13;100544.44;;;11.84;72.11
72055;BME280;59936;51.490;5.436;2023-03-22T10:56:39;100532.44;;;11.95;69.64
72055;BME280;59936;51.490;5.436;2023-03-22T10:59:05;100542.66;;;11.99;69.90
72055;BME280;59936;51.490;5.436;2023-03-22T11:01:34;100535.09;;;12.03;73.27
72055;BME280;59936;51.490;5.436;2023-03-22T11:06:30;100551.00;;;11.82;70.85
72055;BME280;59936;51.490;5.436;2023-03-22T11:11:24;100540.59;;;11.56;74.00
72055;BME280;59936;51.490;5.436;2023-03-22T11:19:14;100536.44;;;11.53;74.55
72055;BME280;59936;51.490;5.436;2023-03-22T11:21:41;100538.59;;;11.58;73.75
72055;BME280;59936;51.490;5.436;2023-03-22T11:24:09;100529.41;;;11.75;71.56
72055;BME280;59936;51.490;5.436;2023-03-22T11:26:37;100528.63;;;11.89;71.77
72055;BME280;59936;51.490;5.436;2023-03-22T11:29:09;100532.63;;;11.93;71.19
72055;BME280;59936;51.490;5.436;2023-03-22T11:31:58;100531.44;;;11.96;74.48
72055;BME280;59936;51.490;5.436;2023-03-22T11:34:28;100539.44;;;12.04;72.74
72055;BME280;59936;51.490;5.436;2023-03-22T11:36:54;100530.72;;;12.02;71.17
72055;BME280;59936;51.490;5.436;2023-03-22T11:39:21;100527.88;;;12.03;71.46
72055;BME280;59936;51.490;5.436;2023-03-22T11:41:47;100535.53;;;12.06;71.25
72055;BME280;59936;51.490;5.436;2023-03-22T11:44:16;100522.59;;;12.10;71.94
72055;BME280;59936;51.490;5.436;2023-03-22T11:46:57;100532.06;;;12.21;71.28
72055;BME280;59936;51.490;5.436;2023-03-22T11:49:26;100530.75;;;12.17;72.42
72055;BME280;59936;51.490;5.436;2023-03-22T11:52:06;100528.69;;;12.27;71.03
72055;BME280;59936;51.490;5.436;2023-03-22T11:54:34;100525.06;;;12.34;71.76
72055;BME280;59936;51.490;5.436;2023-03-22T11:57:10;100530.72;;;12.54;70.33
72055;BME280;59936;51.490;5.436;2023-03-22T11:59:39;100516.59;;;12.75;69.91
72055;BME280;59936;51.490;5.436;2023-03-22T12:02:17;100511.72;;;12.64;70.05
72055;BME280;59936;51.490;5.436;2023-03-22T12:04:48;100506.53;;;12.62;70.19
72055;BME280;59936;51.490;5.436;2023-03-22T12:07:17;100504.47;;;12.79;69.88
72055;BME280;59936;51.490;5.436;2023-03-22T12:09:56;100508.91;;;13.01;69.58
72055;BME280;59936;51.490;5.436;2023-03-22T12:12:33;100496.69;;;12.99;69.62
72055;BME280;59936;51.490;5.436;2023-03-22T12:15:22;100485.28;;;12.97;69.54
72055;BME280;59936;51.490;5.436;2023-03-22T12:17:57;100493.72;;;12.94;69.01
72055;BME280;59936;51.490;5.436;2023-03-22T12:20:39;100496.34;;;12.87;70.01
72055;BME280;59936;51.490;5.436;2023-03-22T12:23:19;100502.06;;;12.84;70.06
72055;BME280;59936;51.490;5.436;2023-03-22T12:25:50;100501.88;;;12.71;69.95
72055;BME280;59936;51.490;5.436;2023-03-22T12:28:32;100494.56;;;12.65;70.25
72055;BME280;59936;51.490;5.436;2023-03-22T12:30:59;100496.41;;;12.79;70.22
72055;BME280;59936;51.490;5.436;2023-03-22T12:33:30;100502.00;;;12.92;69.71
72055;BME280;59936;51.490;5.436;2023-03-22T12:36:01;100493.09;;;12.92;69.65
72055;BME280;59936;51.490;5.436;2023-03-22T12:38:40;100485.03;;;12.92;69.51
72055;BME280;59936;51.490;5.436;2023-03-22T12:41:14;100489.09;;;12.88;69.12
72055;BME280;59936;51.490;5.436;2023-03-22T12:46:25;100483.78;;;12.94;69.36
72055;BME280;59936;51.490;5.436;2023-03-22T12:49:05;100489.94;;;12.88;69.32
72055;BME280;59936;51.490;5.436;2023-03-22T12:51:35;100501.06;;;12.85;69.65
72055;BME280;59936;51.490;5.436;2023-03-22T12:54:01;100501.06;;;12.85;69.65
72055;BME280;59936;51.490;5.436;2023-03-22T12:56:37;100499.75;;;12.81;69.51
72055;BME280;59936;51.490;5.436;2023-03-22T12:59:10;100504.66;;;12.77;69.13
72055;BME280;59936;51.490;5.436;2023-03-22T13:01:45;100489.94;;;12.73;69.21
72055;BME280;59936;51.490;5.436;2023-03-22T13:04:25;100493.44;;;12.74;68.72
72055;BME280;59936;51.490;5.436;2023-03-22T13:11:47;100505.59;;;12.70;69.12
72055;BME280;59936;51.490;5.436;2023-03-22T13:14:53;100495.94;;;12.75;69.44
72055;BME280;59936;51.490;5.436;2023-03-22T13:17:42;100491.97;;;12.71;69.10
72055;BME280;59936;51.490;5.436;2023-03-22T13:43:23;100475.66;;;12.88;68.75
72055;BME280;59936;51.490;5.436;2023-03-22T13:54:25;100475.47;;;12.89;68.98
72055;BME280;59936;51.490;5.436;2023-03-22T13:56:52;100474.84;;;12.87;69.38
72055;BME280;59936;51.490;5.436;2023-03-22T14:04:55;100472.44;;;12.92;69.54
72055;BME280;59936;51.490;5.436;2023-03-22T14:07:25;100475.31;;;12.91;69.64
72055;BME280;59936;51.490;5.436;2023-03-22T14:09:55;100474.28;;;12.92;69.57
72055;BME280;59936;51.490;5.436;2023-03-22T14:15:15;100467.47;;;12.96;69.60
72055;BME280;59936;51.490;5.436;2023-03-22T14:17:54;100468.13;;;12.98;69.36
72055;BME280;59936;51.490;5.436;2023-03-22T14:20:24;100473.88;;;12.95;70.01
72055;BME280;59936;51.490;5.436;2023-03-22T14:22:55;100464.66;;;12.82;70.46
72055;BME280;59936;51.490;5.436;2023-03-22T14:25:26;100474.56;;;12.67;71.34
72055;BME280;59936;51.490;5.436;2023-03-22T14:27:54;100475.72;;;12.50;71.92
72055;BME280;59936;51.490;5.436;2023-03-22T14:32:53;100465.25;;;12.26;73.42
72055;BME280;59936;51.490;5.436;2023-03-22T14:35:27;100450.59;;;12.28;72.82
72055;BME280;59936;51.490;5.436;2023-03-22T14:38:04;100454.88;;;12.37;73.09
72055;BME280;59936;51.490;5.436;2023-03-22T14:40:36;100448.59;;;12.45;72.42
72055;BME280;59936;51.490;5.436;2023-03-22T14:45:37;100438.06;;;12.43;72.84